Time,TemperatureF,DewpointF,PressureIn,WindDirection,WindDirectionDegrees,WindSpeedMPH,WindSpeedGustMPH,Humidity,HourlyPrecipIn,Conditions,Clouds,dailyrainin,SolarRadiationWatts/m^2,SoftwareType,DateUTC
2013-04-08 00:22:00,50.0,46.0,-100.00,NE,41,4.0,7.0,87,0.00,,,0.00,0.000000,,2013-04-08 07:22:00,
2013-04-08 00:32:00,50.0,46.0,-100.00,NE,41,4.0,7.0,87,0.00,,,0.00,0.000000,,2013-04-08 07:32:00,
2013-04-08 00:42:00,50.0,46.0,-100.00,NE,41,4.0,7.0,87,0.00,,,0.00,0.000000,,2013-04-08 07:42:00,
2013-04-08 00:52:00,50.0,46.0,-100.00,NE,41,4.0,7.0,87,0.00,,,0.00,0.000000,,2013-04-08 07:52:00,
2013-04-08 02:12:00,48.0,45.0,-100.00,NNE,12,4.0,6.0,91,-99.99,,,0.00,0.000000,,2013-04-08 09:12:00,
2013-04-08 02:22:00,48.0,45.0,-100.00,NNE,12,4.0,6.0,91,-99.99,,,0.00,0.000000,,2013-04-08 09:22:00,
2013-04-08 02:33:00,48.0,45.0,-100.00,NNE,12,4.0,6.0,91,-99.99,,,0.00,0.000000,,2013-04-08 09:33:00,
2013-04-08 02:42:00,48.0,45.0,-100.00,NNE,12,4.0,6.0,91,-99.99,,,0.00,0.000000,,2013-04-08 09:42:00,
2013-04-08 02:52:00,48.0,45.0,-100.00,NNE,12,4.0,6.0,91,-99.99,,,0.00,0.000000,,2013-04-08 09:52:00,
2013-04-08 03:23:00,50.0,47.0,-100.00,NE,39,3.0,6.0,91,0.00,,,0.00,0.000000,,2013-04-08 10:23:00,
2013-04-08 03:32:00,50.0,47.0,-100.00,NE,39,3.0,6.0,91,0.00,,,0.00,0.000000,,2013-04-08 10:32:00,
2013-04-08 03:42:00,50.0,47.0,-100.00,NE,39,3.0,6.0,91,0.00,,,0.00,0.000000,,2013-04-08 10:42:00,
2013-04-08 03:52:00,50.0,47.0,-100.00,NE,39,3.0,6.0,91,0.00,,,0.00,0.000000,,2013-04-08 10:52:00,
2013-04-08 04:12:00,52.0,49.0,-100.00,ENE,61,2.0,5.0,89,0.00,,,0.00,0.000000,,2013-04-08 11:12:00,
2013-04-08 04:22:00,52.0,49.0,-100.00,ENE,61,2.0,5.0,89,0.00,,,0.00,0.000000,,2013-04-08 11:22:00,
2013-04-08 04:32:00,52.0,49.0,-100.00,ENE,61,2.0,5.0,89,0.00,,,0.00,0.000000,,2013-04-08 11:32:00,
2013-04-08 04:42:00,52.0,49.0,-100.00,ENE,61,2.0,5.0,89,0.00,,,0.00,0.000000,,2013-04-08 11:42:00,
2013-04-08 04:52:00,52.0,49.0,-100.00,ENE,61,2.0,5.0,89,0.00,,,0.00,0.000000,,2013-04-08 11:52:00,
2013-04-08 05:22:00,53.0,50.0,-100.00,SSE,157,1.0,4.0,90,0.00,,,0.00,0.000000,,2013-04-08 12:22:00,
2013-04-08 05:32:00,53.0,50.0,-100.00,SSE,157,1.0,4.0,90,0.00,,,0.00,0.000000,,2013-04-08 12:32:00,
2013-04-08 05:42:00,53.0,50.0,-100.00,SSE,157,1.0,4.0,90,0.00,,,0.00,0.000000,,2013-04-08 12:42:00,
2013-04-08 05:52:00,53.0,50.0,-100.00,SSE,157,1.0,4.0,90,0.00,,,0.00,0.000000,,2013-04-08 12:52:00,
2013-04-08 06:22:00,53.0,52.0,-100.00,SSW,212,3.0,6.0,95,0.00,,,0.00,0.000000,,2013-04-08 13:22:00,
2013-04-08 06:32:00,53.0,52.0,-100.00,SSW,212,3.0,6.0,95,0.00,,,0.00,0.000000,,2013-04-08 13:32:00,
2013-04-08 06:42:00,53.0,52.0,-100.00,SSW,212,3.0,6.0,95,0.00,,,0.00,0.000000,,2013-04-08 13:42:00,
2013-04-08 06:52:00,53.0,52.0,-100.00,SSW,212,3.0,6.0,95,0.00,,,0.00,0.000000,,2013-04-08 13:52:00,
2013-04-08 07:22:00,52.0,51.0,-100.00,WNW,299,1.0,4.0,96,0.00,,,0.00,4.000000,,2013-04-08 14:22:00,
2013-04-08 07:32:00,52.0,51.0,-100.00,WNW,299,1.0,4.0,96,0.00,,,0.00,4.000000,,2013-04-08 14:32:00,
2013-04-08 07:42:00,52.0,51.0,-100.00,WNW,299,1.0,4.0,96,0.00,,,0.00,4.000000,,2013-04-08 14:42:00,
2013-04-08 07:52:00,52.0,51.0,-100.00,WNW,299,1.0,4.0,96,0.00,,,0.00,4.000000,,2013-04-08 14:52:00,
2013-04-08 08:12:00,53.0,49.0,-100.00,South,186,6.0,9.0,87,0.00,,,0.00,90.000000,,2013-04-08 15:12:00,
2013-04-08 08:22:00,53.0,49.0,-100.00,South,186,6.0,9.0,87,0.00,,,0.00,90.000000,,2013-04-08 15:22:00,
2013-04-08 08:33:00,53.0,49.0,-100.00,South,186,6.0,9.0,87,0.00,,,0.00,90.000000,,2013-04-08 15:33:00,
2013-04-08 08:42:00,53.0,49.0,-100.00,South,186,6.0,9.0,87,0.00,,,0.00,90.000000,,2013-04-08 15:42:00,
2013-04-08 08:52:00,53.0,49.0,-100.00,South,186,6.0,9.0,87,0.00,,,0.00,90.000000,,2013-04-08 15:52:00,
2013-04-08 09:22:00,57.0,31.0,-100.00,NW,321,10.0,20.0,37,0.00,,,0.00,256.000000,,2013-04-08 16:22:00,
2013-04-08 09:32:00,57.0,31.0,-100.00,NW,321,10.0,20.0,37,0.00,,,0.00,256.000000,,2013-04-08 16:32:00,
2013-04-08 09:42:00,57.0,31.0,-100.00,NW,321,10.0,20.0,37,0.00,,,0.00,256.000000,,2013-04-08 16:42:00,
2013-04-08 09:52:00,57.0,31.0,-100.00,NW,321,10.0,20.0,37,0.00,,,0.00,256.000000,,2013-04-08 16:52:00,
2013-04-08 10:12:00,57.0,22.0,-100.00,NNW,335,9.0,26.0,26,0.00,,,0.00,511.000000,,2013-04-08 17:12:00,
2013-04-08 10:22:00,57.0,22.0,-100.00,NNW,335,9.0,26.0,26,0.00,,,0.00,511.000000,,2013-04-08 17:22:00,
2013-04-08 10:32:00,57.0,22.0,-100.00,NNW,335,9.0,26.0,26,0.00,,,0.00,511.000000,,2013-04-08 17:32:00,
2013-04-08 10:43:00,57.0,22.0,-100.00,NNW,335,9.0,26.0,26,0.00,,,0.00,511.000000,,2013-04-08 17:43:00,
2013-04-08 10:52:00,57.0,22.0,-100.00,NNW,335,9.0,26.0,26,0.00,,,0.00,511.000000,,2013-04-08 17:52:00,
2013-04-08 11:12:00,58.0,28.0,-100.00,NW,309,10.0,29.0,32,0.00,,,0.00,689.000000,,2013-04-08 18:12:00,
2013-04-08 11:22:00,58.0,28.0,-100.00,NW,309,10.0,29.0,32,0.00,,,0.00,689.000000,,2013-04-08 18:22:00,
2013-04-08 11:32:00,58.0,28.0,-100.00,NW,309,10.0,29.0,32,0.00,,,0.00,689.000000,,2013-04-08 18:32:00,
2013-04-08 11:42:00,58.0,28.0,-100.00,NW,309,10.0,29.0,32,0.00,,,0.00,689.000000,,2013-04-08 18:42:00,
2013-04-08 11:52:00,58.0,28.0,-100.00,NW,309,10.0,29.0,32,0.00,,,0.00,689.000000,,2013-04-08 18:52:00,
2013-04-08 12:12:00,59.0,30.0,-100.00,NNW,343,13.0,34.0,33,0.00,,,0.00,826.000000,,2013-04-08 19:12:00,
2013-04-08 12:22:00,59.0,30.0,-100.00,NNW,343,13.0,34.0,33,0.00,,,0.00,826.000000,,2013-04-08 19:22:00,
2013-04-08 12:33:00,59.0,30.0,-100.00,NNW,343,13.0,34.0,33,0.00,,,0.00,826.000000,,2013-04-08 19:33:00,
2013-04-08 12:42:00,59.0,30.0,-100.00,NNW,343,13.0,34.0,33,0.00,,,0.00,826.000000,,2013-04-08 19:42:00,
2013-04-08 12:52:00,59.0,30.0,-100.00,NNW,343,13.0,34.0,33,0.00,,,0.00,826.000000,,2013-04-08 19:52:00,
2013-04-08 13:12:00,61.0,29.0,-100.00,NW,326,13.0,31.0,30,0.00,,,0.00,905.000000,,2013-04-08 20:12:00,
2013-04-08 13:22:00,61.0,29.0,-100.00,NW,326,13.0,31.0,30,0.00,,,0.00,905.000000,,2013-04-08 20:22:00,
2013-04-08 13:32:00,61.0,29.0,-100.00,NW,326,13.0,31.0,30,0.00,,,0.00,905.000000,,2013-04-08 20:32:00,
2013-04-08 13:42:00,61.0,29.0,-100.00,NW,326,13.0,31.0,30,0.00,,,0.00,905.000000,,2013-04-08 20:42:00,
2013-04-08 13:52:00,61.0,29.0,-100.00,NW,326,13.0,31.0,30,0.00,,,0.00,905.000000,,2013-04-08 20:52:00,
2013-04-08 14:22:00,62.0,32.0,-100.00,NW,315,15.0,40.0,32,0.00,,,0.00,921.000000,,2013-04-08 21:22:00,
2013-04-08 14:32:00,62.0,32.0,-100.00,NW,315,15.0,40.0,32,0.00,,,0.00,921.000000,,2013-04-08 21:32:00,
2013-04-08 14:43:00,62.0,32.0,-100.00,NW,315,15.0,40.0,32,0.00,,,0.00,921.000000,,2013-04-08 21:43:00,
2013-04-08 14:52:00,62.0,32.0,-100.00,NW,315,15.0,40.0,32,0.00,,,0.00,921.000000,,2013-04-08 21:52:00,
2013-04-08 15:13:00,62.0,31.0,-100.00,NNW,335,14.0,44.0,31,0.00,,,0.00,881.000000,,2013-04-08 22:13:00,
2013-04-08 15:22:00,62.0,31.0,-100.00,NNW,335,14.0,44.0,31,0.00,,,0.00,881.000000,,2013-04-08 22:22:00,
2013-04-08 15:32:00,62.0,31.0,-100.00,NNW,335,14.0,44.0,31,0.00,,,0.00,881.000000,,2013-04-08 22:32:00,
2013-04-08 15:42:00,62.0,31.0,-100.00,NNW,335,14.0,44.0,31,0.00,,,0.00,881.000000,,2013-04-08 22:42:00,
2013-04-08 15:52:00,62.0,31.0,-100.00,NNW,335,14.0,44.0,31,0.00,,,0.00,881.000000,,2013-04-08 22:52:00,
2013-04-08 17:12:00,63.0,32.0,-100.00,NW,306,6.0,30.0,31,-99.99,,,0.00,592.000000,,2013-04-09 00:12:00,
2013-04-08 17:22:00,63.0,32.0,-100.00,NW,306,6.0,30.0,31,-99.99,,,0.00,592.000000,,2013-04-09 00:22:00,
2013-04-08 17:32:00,63.0,32.0,-100.00,NW,306,6.0,30.0,31,-99.99,,,0.00,592.000000,,2013-04-09 00:32:00,
2013-04-08 17:42:00,63.0,32.0,-100.00,NW,306,6.0,30.0,31,-99.99,,,0.00,592.000000,,2013-04-09 00:42:00,
2013-04-08 17:52:00,63.0,32.0,-100.00,NW,306,6.0,30.0,31,-99.99,,,0.00,592.000000,,2013-04-09 00:52:00,
2013-04-08 18:12:00,62.0,30.0,-100.00,NNW,344,10.0,28.0,30,0.00,,,0.00,398.000000,,2013-04-09 01:12:00,
2013-04-08 18:22:00,62.0,30.0,-100.00,NNW,344,10.0,28.0,30,0.00,,,0.00,398.000000,,2013-04-09 01:22:00,
2013-04-08 18:32:00,62.0,30.0,-100.00,NNW,344,10.0,28.0,30,0.00,,,0.00,398.000000,,2013-04-09 01:32:00,
2013-04-08 18:42:00,62.0,30.0,-100.00,NNW,344,10.0,28.0,30,0.00,,,0.00,398.000000,,2013-04-09 01:42:00,
2013-04-08 18:52:00,62.0,30.0,-100.00,NNW,344,10.0,28.0,30,0.00,,,0.00,398.000000,,2013-04-09 01:52:00,
2013-04-08 19:22:00,58.0,29.0,-100.00,North,355,6.0,25.0,33,0.00,,,0.00,155.000000,,2013-04-09 02:22:00,
2013-04-08 19:32:00,58.0,29.0,-100.00,North,355,6.0,25.0,33,0.00,,,0.00,155.000000,,2013-04-09 02:32:00,
2013-04-08 19:42:00,58.0,29.0,-100.00,North,355,6.0,25.0,33,0.00,,,0.00,155.000000,,2013-04-09 02:42:00,
2013-04-08 19:52:00,58.0,29.0,-100.00,North,355,6.0,25.0,33,0.00,,,0.00,155.000000,,2013-04-09 02:52:00,
2013-04-08 20:12:00,56.0,29.0,-100.00,SSW,213,5.0,15.0,36,0.00,,,0.00,8.000000,,2013-04-09 03:12:00,
2013-04-08 20:21:00,56.0,29.0,-100.00,SSW,213,5.0,15.0,36,0.00,,,0.00,8.000000,,2013-04-09 03:21:00,
2013-04-08 20:32:00,56.0,29.0,-100.00,SSW,213,5.0,15.0,36,0.00,,,0.00,8.000000,,2013-04-09 03:32:00,
2013-04-08 20:42:00,56.0,29.0,-100.00,SSW,213,5.0,15.0,36,0.00,,,0.00,8.000000,,2013-04-09 03:42:00,
2013-04-08 20:52:00,56.0,29.0,-100.00,SSW,213,5.0,15.0,36,0.00,,,0.00,8.000000,,2013-04-09 03:52:00,
2013-04-08 21:13:00,54.0,31.0,-100.00,NNW,337,2.0,11.0,41,0.00,,,0.00,0.000000,,2013-04-09 04:13:00,
2013-04-08 21:23:00,54.0,31.0,-100.00,NNW,337,2.0,11.0,41,0.00,,,0.00,0.000000,,2013-04-09 04:23:00,
2013-04-08 21:32:00,54.0,31.0,-100.00,NNW,337,2.0,11.0,41,0.00,,,0.00,0.000000,,2013-04-09 04:32:00,
2013-04-08 21:42:00,54.0,31.0,-100.00,NNW,337,2.0,11.0,41,0.00,,,0.00,0.000000,,2013-04-09 04:42:00,
2013-04-08 21:52:00,54.0,31.0,-100.00,NNW,337,2.0,11.0,41,0.00,,,0.00,0.000000,,2013-04-09 04:52:00,
2013-04-08 22:12:00,50.0,31.0,-100.00,NNE,20,3.0,6.0,48,0.00,,,0.00,0.000000,,2013-04-09 05:12:00,
2013-04-08 22:22:00,50.0,31.0,-100.00,NNE,20,3.0,6.0,48,0.00,,,0.00,0.000000,,2013-04-09 05:22:00,
2013-04-08 22:32:00,50.0,31.0,-100.00,NNE,20,3.0,6.0,48,0.00,,,0.00,0.000000,,2013-04-09 05:32:00,
2013-04-08 22:42:00,50.0,31.0,-100.00,NNE,20,3.0,6.0,48,0.00,,,0.00,0.000000,,2013-04-09 05:42:00,
2013-04-08 22:52:00,50.0,31.0,-100.00,NNE,20,3.0,6.0,48,0.00,,,0.00,0.000000,,2013-04-09 05:52:00,
2013-04-08 23:12:00,51.0,31.0,-100.00,NE,56,3.0,8.0,47,0.00,,,0.00,0.000000,,2013-04-09 06:12:00,
2013-04-08 23:22:00,51.0,31.0,-100.00,NE,56,3.0,8.0,47,0.00,,,0.00,0.000000,,2013-04-09 06:22:00,
2013-04-08 23:32:00,51.0,31.0,-100.00,NE,56,3.0,8.0,47,0.00,,,0.00,0.000000,,2013-04-09 06:32:00,
2013-04-08 23:42:00,51.0,31.0,-100.00,NE,56,3.0,8.0,47,0.00,,,0.00,0.000000,,2013-04-09 06:42:00,
2013-04-08 23:52:00,51.0,31.0,-100.00,NE,56,3.0,8.0,47,0.00,,,0.00,0.000000,,2013-04-09 06:52:00,